Time;durP1;ratioP1;P1;durP2;ratioP2;P2;SDS_P1;SDS_P2;PMS_P1;PMS_P2;Temp;Humidity;BMP_temperature;BMP_pressure;BME280_temperature;BME280_humidity;BME280_pressure;Samples;Min_cycle;Max_cycle;Signal;HPM_P1;HPM_P2
2022/11/24 00:02:13;;;;;;;27.77;5.80;;;8.80;99.90;;;;;;4885756;29;38687;-74
2022/11/24 00:04:39;;;;;;;30.80;5.30;;;8.70;99.90;;;;;;4865916;29;36949;-76
2022/11/24 00:07:05;;;;;;;30.23;5.37;;;8.70;99.90;;;;;;4869896;29;36815;-77
2022/11/24 00:09:31;;;;;;;29.13;4.53;;;8.70;99.90;;;;;;4887559;29;37219;-75
2022/11/24 00:12:00;;;;;;;32.00;5.07;;;8.70;99.90;;;;;;4888000;29;39888;-75
2022/11/24 00:14:26;;;;;;;30.77;5.43;;;8.70;99.90;;;;;;4884702;29;38312;-75
2022/11/24 00:16:52;;;;;;;38.17;5.00;;;8.70;99.90;;;;;;4888108;29;38114;-75
2022/11/24 00:19:18;;;;;;;32.13;5.67;;;8.70;99.90;;;;;;4883028;29;36828;-75
2022/11/24 00:21:44;;;;;;;32.73;5.37;;;8.70;99.90;;;;;;4885443;29;38508;-76
2022/11/24 00:24:12;;;;;;;23.53;4.63;;;8.70;99.90;;;;;;4887161;29;38069;-74
2022/11/24 00:26:38;;;;;;;29.30;5.10;;;8.70;99.90;;;;;;4888278;29;38135;-74
2022/11/24 00:29:06;;;;;;;21.70;5.00;;;8.60;99.90;;;;;;4890399;29;37908;-75
2022/11/24 00:31:40;;;;;;;34.97;4.50;;;8.60;99.90;;;;;;4853943;29;47147;-74
2022/11/24 00:34:10;;;;;;;25.33;4.60;;;8.60;99.90;;;;;;4885007;29;39110;-74
2022/11/24 00:36:36;;;;;;;30.13;5.87;;;8.50;99.90;;;;;;4884840;29;37182;-75
2022/11/24 00:39:05;;;;;;;22.93;3.67;;;8.50;99.90;;;;;;4886649;29;38446;-74
2022/11/24 00:41:32;;;;;;;24.40;4.00;;;8.50;99.90;;;;;;4871950;29;47275;-75
2022/11/24 00:43:58;;;;;;;24.93;3.90;;;8.60;99.90;;;;;;4886979;29;39467;-75
2022/11/24 00:46:25;;;;;;;21.53;4.70;;;8.60;99.90;;;;;;4886116;29;35762;-74
2022/11/24 00:48:52;;;;;;;20.53;4.07;;;8.70;99.90;;;;;;4871505;29;37440;-74
2022/11/24 00:51:20;;;;;;;20.70;3.57;;;8.70;99.90;;;;;;4888623;29;38632;-75
2022/11/24 00:53:47;;;;;;;17.77;3.60;;;8.80;99.90;;;;;;4871898;29;37196;-74
2022/11/24 00:56:14;;;;;;;26.50;4.00;;;8.80;99.90;;;;;;4888999;29;37937;-75
2022/11/24 00:58:40;;;;;;;21.43;3.90;;;8.80;99.90;;;;;;4890262;29;35806;-75
2022/11/24 01:01:10;;;;;;;18.10;3.47;;;8.80;99.90;;;;;;4887953;29;39603;-75
2022/11/24 01:03:36;;;;;;;18.13;4.10;;;8.80;99.90;;;;;;4886657;29;38114;-74
2022/11/24 01:06:12;;;;;;;22.13;4.00;;;8.90;99.90;;;;;;4884734;29;37769;-75
2022/11/24 01:08:39;;;;;;;21.17;3.23;;;8.90;99.90;;;;;;4866510;29;47557;-75
2022/11/24 01:11:16;;;;;;;23.67;3.87;;;8.90;99.90;;;;;;4890486;29;38813;-75
2022/11/24 01:13:44;;;;;;;28.27;4.40;;;8.90;99.90;;;;;;4887880;29;39439;-74
2022/11/24 01:16:26;;;;;;;20.30;4.13;;;8.90;99.90;;;;;;4887236;29;38149;-74
2022/11/24 01:18:52;;;;;;;26.70;3.50;;;8.90;99.90;;;;;;4884719;29;37318;-73
2022/11/24 01:21:19;;;;;;;27.80;3.97;;;8.90;99.90;;;;;;4887426;29;39545;-75
2022/11/24 01:23:46;;;;;;;22.47;3.70;;;8.90;99.90;;;;;;4886530;29;40338;-75
2022/11/24 01:26:15;;;;;;;30.10;4.27;;;8.90;99.90;;;;;;4890275;29;37870;-75
2022/11/24 01:28:41;;;;;;;25.50;4.40;;;8.90;99.90;;;;;;4873441;29;37388;-75
2022/11/24 01:31:08;;;;;;;27.67;4.90;;;8.90;99.90;;;;;;4889023;29;38816;-75
2022/11/24 01:33:34;;;;;;;24.63;3.53;;;8.80;99.90;;;;;;4889689;29;38312;-76
2022/11/24 01:36:01;;;;;;;25.33;4.37;;;8.80;99.90;;;;;;4868574;29;37614;-76
2022/11/24 01:38:30;;;;;;;28.27;4.67;;;8.80;99.90;;;;;;4889676;29;37584;-75
2022/11/24 01:41:18;;;;;;;24.83;4.00;;;8.80;99.90;;;;;;4874633;29;38761;-75
2022/11/24 01:43:45;;;;;;;26.73;4.33;;;8.80;99.90;;;;;;4887039;29;49186;-75
2022/11/24 01:46:29;;;;;;;28.43;5.20;;;8.80;99.90;;;;;;4892180;29;37509;-75
2022/11/24 01:49:07;;;;;;;22.43;4.03;;;8.70;99.90;;;;;;4891369;29;36669;-74
2022/11/24 01:51:37;;;;;;;25.00;3.90;;;8.80;99.90;;;;;;4887828;29;48453;-75
2022/11/24 01:54:12;;;;;;;22.13;4.30;;;8.80;99.90;;;;;;4887307;29;39462;-74
2022/11/24 01:56:41;;;;;;;23.70;3.37;;;8.80;99.90;;;;;;4889976;29;38187;-76
2022/11/24 01:59:12;;;;;;;23.63;3.67;;;8.80;99.90;;;;;;4890300;29;37183;-76
2022/11/24 02:04:13;;;;;;;17.83;2.97;;;8.80;99.90;;;;;;4873415;29;20056;-75
2022/11/24 02:06:43;;;;;;;14.90;2.33;;;8.70;99.90;;;;;;4885990;29;38624;-75
2022/11/24 02:09:20;;;;;;;16.17;2.47;;;8.70;99.90;;;;;;4871844;29;37390;-75
2022/11/24 02:11:46;;;;;;;7.17;1.80;;;8.60;99.90;;;;;;4882601;29;37466;-75
2022/11/24 02:14:16;;;;;;;11.67;1.60;;;8.50;99.90;;;;;;4885222;29;39173;-75
2022/11/24 02:16:48;;;;;;;14.60;1.97;;;8.50;99.90;;;;;;4889320;29;38503;-75
2022/11/24 02:19:36;;;;;;;11.70;2.17;;;8.40;99.90;;;;;;4892326;29;36145;-75
2022/11/24 02:22:03;;;;;;;16.37;1.40;;;8.30;99.90;;;;;;4891795;29;38746;-75
2022/11/24 02:25:02;;;;;;;8.40;1.27;;;8.30;99.90;;;;;;4892082;29;37256;-76
2022/11/24 02:27:29;;;;;;;7.33;0.70;;;8.50;99.90;;;;;;4891873;29;38127;-75
2022/11/24 02:29:56;;;;;;;2.83;0.40;;;8.60;99.90;;;;;;4873338;29;37656;-74
2022/11/24 02:32:22;;;;;;;6.53;0.47;;;8.60;99.90;;;;;;4891093;29;39175;-74
2022/11/24 02:34:48;;;;;;;8.10;0.80;;;8.60;99.90;;;;;;4894035;29;39150;-75
2022/11/24 02:37:15;;;;;;;10.47;0.90;;;8.70;99.90;;;;;;4886111;29;37953;-74
2022/11/24 02:39:41;;;;;;;10.17;1.20;;;8.60;99.90;;;;;;4884849;29;38564;-75
2022/11/24 02:42:11;;;;;;;5.03;1.33;;;8.50;99.90;;;;;;4895194;29;39354;-75
2022/11/24 02:44:43;;;;;;;8.43;1.73;;;8.50;99.90;;;;;;4890552;29;37228;-75
2022/11/24 02:47:14;;;;;;;10.10;1.90;;;8.50;99.90;;;;;;4885653;29;37872;-75
2022/11/24 02:49:40;;;;;;;8.73;1.13;;;8.50;99.90;;;;;;4885399;29;36941;-76
2022/11/24 02:52:06;;;;;;;6.23;1.27;;;8.40;99.90;;;;;;4886781;29;38806;-74
2022/11/24 02:54:33;;;;;;;10.90;1.20;;;8.40;99.90;;;;;;4887323;29;38602;-75
2022/11/24 02:56:59;;;;;;;15.27;2.53;;;8.40;99.90;;;;;;4890611;29;36840;-75
2022/11/24 02:59:25;;;;;;;11.07;1.60;;;8.40;99.90;;;;;;4886657;29;37203;-75
2022/11/24 03:01:52;;;;;;;12.33;1.60;;;8.40;99.90;;;;;;4890204;29;37816;-75
2022/11/24 03:04:18;;;;;;;12.77;1.60;;;8.40;99.90;;;;;;4895200;29;38337;-75
2022/11/24 03:06:44;;;;;;;12.63;1.60;;;8.40;99.90;;;;;;4895843;29;37429;-75
2022/11/24 03:09:10;;;;;;;12.77;2.10;;;8.40;99.90;;;;;;4894501;29;37390;-75
2022/11/24 03:11:37;;;;;;;14.33;2.37;;;8.40;99.90;;;;;;4891256;29;37435;-76
2022/11/24 03:14:04;;;;;;;21.63;3.97;;;8.40;99.90;;;;;;4887636;29;39222;-75
2022/11/24 03:16:30;;;;;;;26.30;4.40;;;8.50;99.90;;;;;;4890120;29;38301;-75
2022/11/24 03:18:57;;;;;;;24.60;4.00;;;8.50;99.90;;;;;;4893069;29;38369;-75
2022/11/24 03:21:23;;;;;;;25.80;4.33;;;8.60;99.90;;;;;;4878192;29;37853;-75
2022/11/24 03:23:50;;;;;;;27.80;4.47;;;8.60;99.90;;;;;;4880974;29;38577;-75
2022/11/24 03:26:18;;;;;;;25.53;3.97;;;8.60;99.90;;;;;;4894258;29;37799;-75
2022/11/24 03:28:45;;;;;;;22.27;3.77;;;8.60;99.90;;;;;;4895997;29;37369;-75
2022/11/24 03:31:11;;;;;;;31.17;4.63;;;8.70;99.90;;;;;;4893407;29;39247;-75
2022/11/24 03:33:38;;;;;;;22.80;3.60;;;8.70;99.90;;;;;;4892112;29;37530;-76
2022/11/24 03:36:05;;;;;;;22.63;4.53;;;8.70;99.90;;;;;;4873776;29;37136;-75
2022/11/24 03:38:31;;;;;;;26.07;4.50;;;8.70;99.90;;;;;;4889989;29;48971;-75
2022/11/24 03:40:58;;;;;;;16.00;3.73;;;8.70;99.90;;;;;;4895952;29;38764;-75
2022/11/24 03:43:24;;;;;;;28.47;5.20;;;8.70;99.90;;;;;;4888690;29;37130;-75
2022/11/24 03:45:50;;;;;;;22.13;4.77;;;8.70;99.90;;;;;;4893327;29;37128;-76
2022/11/24 03:48:20;;;;;;;25.43;4.77;;;8.70;99.90;;;;;;4883080;29;35780;-74
2022/11/24 03:50:57;;;;;;;22.20;4.57;;;8.60;99.90;;;;;;4892207;29;38953;-75
2022/11/24 03:53:34;;;;;;;19.17;3.80;;;8.60;99.90;;;;;;4884155;29;37440;-74
2022/11/24 03:56:02;;;;;;;17.87;3.07;;;8.50;99.90;;;;;;4895873;29;39610;-74
2022/11/24 03:58:29;;;;;;;10.97;2.63;;;8.50;99.90;;;;;;4891319;29;36077;-74
2022/11/24 04:00:55;;;;;;;19.77;3.43;;;8.40;99.90;;;;;;4890304;29;38714;-73
2022/11/24 04:03:21;;;;;;;18.83;2.87;;;8.40;99.90;;;;;;4876394;29;37772;-73
2022/11/24 04:05:48;;;;;;;19.40;3.43;;;8.30;99.90;;;;;;4886933;29;36382;-74
2022/11/24 04:08:15;;;;;;;10.03;2.27;;;8.30;99.90;;;;;;4872651;29;36369;-74
2022/11/24 04:10:41;;;;;;;9.90;2.40;;;8.30;99.90;;;;;;4876793;29;37668;-74
2022/11/24 04:13:13;;;;;;;14.07;2.50;;;8.20;99.90;;;;;;4891065;29;38596;-74
2022/11/24 04:15:40;;;;;;;12.95;1.92;;;8.20;99.90;;;;;;4872905;29;37284;-74
2022/11/24 04:18:07;;;;;;;8.00;1.47;;;8.10;99.90;;;;;;4886113;29;37205;-74
2022/11/24 04:20:33;;;;;;;10.00;1.80;;;8.00;99.90;;;;;;4890501;29;39101;-74
2022/11/24 04:23:00;;;;;;;12.80;2.30;;;8.00;99.90;;;;;;4880428;29;36926;-74
2022/11/24 04:25:26;;;;;;;7.73;1.50;;;7.90;99.90;;;;;;4887736;29;38045;-73
2022/11/24 04:27:54;;;;;;;8.77;1.07;;;7.80;99.90;;;;;;4889900;29;39094;-74
2022/11/24 04:30:21;;;;;;;5.83;0.87;;;7.70;99.90;;;;;;4893930;29;38605;-74
2022/11/24 04:32:48;;;;;;;7.40;1.30;;;7.70;99.90;;;;;;4887773;29;39834;-73
2022/11/24 04:35:14;;;;;;;8.60;1.37;;;7.60;99.90;;;;;;4894098;29;38729;-74
2022/11/24 04:37:40;;;;;;;10.90;1.33;;;7.60;99.90;;;;;;4885797;29;37629;-73
2022/11/24 04:40:08;;;;;;;6.20;1.23;;;7.70;99.90;;;;;;4876058;29;38605;-74
2022/11/24 04:42:35;;;;;;;7.97;1.40;;;7.70;99.90;;;;;;4881275;29;36983;-74
2022/11/24 04:45:01;;;;;;;8.30;1.60;;;7.80;99.90;;;;;;4894898;29;37916;-73
2022/11/24 04:47:27;;;;;;;12.77;1.63;;;7.80;99.90;;;;;;4891354;29;36921;-74
2022/11/24 04:49:54;;;;;;;9.23;1.40;;;7.80;99.90;;;;;;4887439;29;37928;-74
2022/11/24 04:52:22;;;;;;;7.53;1.57;;;7.80;99.90;;;;;;4893243;29;38622;-74
2022/11/24 04:54:48;;;;;;;5.87;1.00;;;7.90;99.90;;;;;;4874929;29;37618;-74
2022/11/24 04:57:23;;;;;;;9.07;2.43;;;7.90;99.90;;;;;;4891105;29;36914;-74
2022/11/24 04:59:50;;;;;;;5.93;1.17;;;7.90;99.90;;;;;;4891848;29;38317;-74
2022/11/24 05:02:16;;;;;;;9.03;1.27;;;7.90;99.90;;;;;;4889688;29;37666;-75
2022/11/24 05:04:42;;;;;;;11.83;1.40;;;7.90;99.90;;;;;;4893893;29;36997;-75
2022/11/24 05:07:12;;;;;;;5.00;1.13;;;7.90;99.90;;;;;;4872880;29;37056;-74
2022/11/24 05:10:33;;;;;;;7.93;1.47;;;7.90;99.90;;;;;;4879086;29;37854;-75
2022/11/24 05:12:30;;;;;;;7.70;1.70;;;7.90;99.90;;;;;;4881543;29;40179;-74
2022/11/24 05:15:00;;;;;;;8.53;1.90;;;7.90;99.90;;;;;;4878030;29;39097;-74
2022/11/24 05:17:32;;;;;;;10.10;2.07;;;7.90;99.90;;;;;;4871627;29;37232;-74
2022/11/24 05:19:59;;;;;;;6.10;2.70;;;7.90;99.90;;;;;;4871199;29;38933;-74
2022/11/24 05:22:27;;;;;;;8.77;2.83;;;7.90;99.90;;;;;;4866446;29;36286;-74
2022/11/24 05:24:54;;;;;;;11.43;4.53;;;7.90;99.90;;;;;;4891145;29;37792;-74
2022/11/24 05:27:20;;;;;;;9.30;3.23;;;7.90;99.90;;;;;;4880214;29;36193;-74
2022/11/24 05:29:46;;;;;;;9.57;3.67;;;7.90;99.90;;;;;;4874316;29;37545;-74
2022/11/24 05:32:12;;;;;;;9.37;3.50;;;7.90;99.90;;;;;;4873236;29;39140;-75
2022/11/24 05:34:38;;;;;;;8.83;3.70;;;7.90;99.90;;;;;;4886067;29;36887;-74
2022/11/24 05:37:04;;;;;;;6.03;3.00;;;7.80;99.90;;;;;;4872602;29;36563;-74
2022/11/24 05:39:34;;;;;;;10.10;3.70;;;7.80;99.90;;;;;;4874401;29;37598;-74
2022/11/24 05:42:39;;;;;;;9.87;4.10;;;7.80;99.90;;;;;;4872856;29;36239;-75
2022/11/24 05:44:48;;;;;;;11.17;3.37;;;7.70;99.90;;;;;;4869078;29;48279;-75
2022/11/24 05:47:15;;;;;;;8.47;3.10;;;7.70;99.90;;;;;;4875745;29;38097;-74
2022/11/24 05:49:41;;;;;;;9.73;3.07;;;7.70;99.90;;;;;;4879050;29;37431;-75
2022/11/24 05:52:07;;;;;;;9.03;3.03;;;7.60;99.90;;;;;;4869027;29;38390;-74
2022/11/24 05:54:33;;;;;;;8.10;2.87;;;7.70;99.90;;;;;;4872482;29;38431;-75
2022/11/24 05:56:59;;;;;;;7.20;3.17;;;7.60;99.90;;;;;;4869433;29;35990;-74
2022/11/24 05:59:25;;;;;;;8.80;3.10;;;7.60;99.90;;;;;;4871875;29;39342;-75
2022/11/24 06:01:54;;;;;;;10.70;3.20;;;7.60;99.90;;;;;;4868573;29;36961;-75
2022/11/24 06:04:20;;;;;;;11.17;3.47;;;7.70;99.90;;;;;;4893641;29;38097;-73
2022/11/24 06:06:46;;;;;;;13.67;3.87;;;7.60;99.90;;;;;;4882411;29;35877;-74
2022/11/24 06:09:12;;;;;;;10.53;3.73;;;7.70;99.90;;;;;;4891964;29;38935;-73
2022/11/24 06:11:39;;;;;;;8.97;4.00;;;7.70;99.90;;;;;;4889577;29;38256;-73
2022/11/24 06:14:05;;;;;;;8.27;3.80;;;7.70;99.90;;;;;;4892804;29;39133;-75
2022/11/24 06:16:31;;;;;;;11.23;4.13;;;7.70;99.90;;;;;;4892932;29;36211;-74
2022/11/24 06:18:57;;;;;;;13.10;4.80;;;7.70;99.90;;;;;;4877121;29;37732;-73
2022/11/24 06:21:23;;;;;;;9.47;4.43;;;7.70;99.90;;;;;;4892886;29;40951;-74
2022/11/24 06:23:49;;;;;;;7.80;3.80;;;7.80;99.90;;;;;;4892521;29;37910;-74
2022/11/24 06:26:17;;;;;;;8.83;4.43;;;7.80;99.90;;;;;;4885615;29;36243;-74
2022/11/24 06:28:43;;;;;;;20.30;5.40;;;7.80;99.90;;;;;;4893254;29;36671;-74
2022/11/24 06:31:09;;;;;;;9.60;5.17;;;7.80;99.90;;;;;;4879610;29;38134;-74
2022/11/24 06:33:36;;;;;;;13.40;6.30;;;7.80;99.90;;;;;;4893956;29;39018;-74
2022/11/24 06:36:06;;;;;;;11.03;5.77;;;7.90;99.90;;;;;;4880235;29;38214;-74
2022/11/24 06:38:34;;;;;;;13.97;6.43;;;7.80;99.90;;;;;;4877143;29;46648;-74
2022/11/24 06:41:00;;;;;;;14.53;5.80;;;7.90;99.90;;;;;;4873586;29;38472;-74
2022/11/24 06:43:28;;;;;;;10.60;5.93;;;7.90;99.90;;;;;;4862531;29;36923;-73
2022/11/24 06:45:56;;;;;;;11.03;4.93;;;7.90;99.90;;;;;;4872578;29;37616;-73
2022/11/24 06:48:23;;;;;;;14.73;5.67;;;7.90;99.90;;;;;;4877173;29;39113;-75
2022/11/24 06:50:49;;;;;;;14.97;6.00;;;7.80;99.90;;;;;;4883383;29;38260;-74
2022/11/24 06:53:16;;;;;;;15.57;4.43;;;7.80;99.90;;;;;;4871744;29;40157;-73
2022/11/24 06:55:42;;;;;;;11.70;4.37;;;7.80;99.90;;;;;;4876148;29;37587;-74
2022/11/24 06:58:08;;;;;;;12.17;4.07;;;7.80;99.90;;;;;;4878044;29;40952;-74
2022/11/24 07:00:36;;;;;;;15.63;4.60;;;7.80;99.90;;;;;;4874082;29;38349;-73
2022/11/24 07:03:03;;;;;;;14.33;3.03;;;7.80;99.90;;;;;;4871841;29;37677;-76
2022/11/24 07:05:29;;;;;;;12.57;2.47;;;7.80;99.90;;;;;;4876271;29;37524;-73
2022/11/24 07:07:57;;;;;;;8.63;2.47;;;7.80;99.90;;;;;;4875891;28;39097;-73
2022/11/24 07:10:23;;;;;;;13.97;2.43;;;7.80;99.90;;;;;;4872963;29;38319;-74
2022/11/24 07:12:49;;;;;;;9.90;2.13;;;7.80;99.90;;;;;;4872314;29;38216;-74
2022/11/24 07:15:15;;;;;;;11.20;2.00;;;7.80;99.90;;;;;;4885151;29;36433;-73
2022/11/24 07:17:41;;;;;;;9.63;1.83;;;7.80;99.90;;;;;;4876160;29;39178;-74
2022/11/24 07:20:08;;;;;;;11.17;2.27;;;7.80;99.90;;;;;;4875099;29;38697;-74
2022/11/24 07:22:34;;;;;;;21.83;2.70;;;7.80;99.90;;;;;;4876655;29;37696;-73
2022/11/24 07:25:00;;;;;;;14.93;2.10;;;7.70;99.90;;;;;;4877239;29;36254;-74
2022/11/24 07:27:30;;;;;;;12.20;2.23;;;7.60;99.90;;;;;;4876492;29;37645;-76
2022/11/24 07:29:56;;;;;;;13.73;2.17;;;7.60;99.90;;;;;;4877083;29;37445;-75
2022/11/24 07:32:22;;;;;;;16.83;2.90;;;7.60;99.90;;;;;;4877278;29;38983;-74
2022/11/24 07:34:48;;;;;;;13.70;2.20;;;7.70;99.90;;;;;;4876732;29;37300;-74
2022/11/24 07:37:14;;;;;;;12.87;2.67;;;7.70;99.90;;;;;;4874040;29;40340;-74
2022/11/24 07:39:40;;;;;;;15.87;2.43;;;7.70;99.90;;;;;;4878191;29;36979;-75
2022/11/24 07:42:07;;;;;;;18.80;2.13;;;7.70;99.90;;;;;;4875578;29;37125;-73
2022/11/24 07:44:33;;;;;;;17.77;2.20;;;7.70;99.90;;;;;;4873574;29;36134;-75
2022/11/24 07:46:59;;;;;;;32.90;3.23;;;7.90;99.90;;;;;;4874599;29;38131;-75
2022/11/24 07:49:25;;;;;;;15.23;2.40;;;7.90;99.90;;;;;;4879498;29;38511;-74
2022/11/24 07:51:51;;;;;;;10.87;2.80;;;7.80;99.90;;;;;;4867994;29;36759;-74
2022/11/24 07:54:17;;;;;;;21.93;2.90;;;7.80;99.90;;;;;;4863121;29;35279;-74
2022/11/24 07:56:46;;;;;;;14.07;2.20;;;7.80;99.90;;;;;;4866300;29;38771;-74
2022/11/24 07:59:12;;;;;;;14.03;2.57;;;7.70;99.90;;;;;;4871998;29;38138;-74
2022/11/24 08:01:38;;;;;;;18.37;3.00;;;7.70;99.90;;;;;;4876545;29;39106;-74
2022/11/24 08:04:04;;;;;;;12.63;2.10;;;7.70;99.90;;;;;;4873836;29;37261;-73
2022/11/24 08:06:30;;;;;;;17.17;2.57;;;7.70;99.90;;;;;;4871554;29;40888;-73
2022/11/24 08:08:58;;;;;;;22.60;2.97;;;7.70;99.90;;;;;;4857665;29;20045;-74
2022/11/24 08:11:24;;;;;;;20.57;2.70;;;7.70;99.90;;;;;;4874806;29;38396;-74
2022/11/24 08:13:51;;;;;;;26.97;3.30;;;7.70;99.90;;;;;;4877170;29;36758;-73
2022/11/24 08:16:18;;;;;;;24.33;3.40;;;7.70;99.90;;;;;;4880813;29;38867;-74
2022/11/24 08:18:53;;;;;;;12.83;2.63;;;7.70;99.90;;;;;;4875616;29;40068;-73
2022/11/24 08:21:19;;;;;;;23.17;2.93;;;7.70;99.90;;;;;;4864919;29;37025;-74
2022/11/24 08:23:46;;;;;;;18.63;2.50;;;7.70;99.90;;;;;;4853563;29;37029;-73
2022/11/24 08:26:16;;;;;;;19.63;3.93;;;7.80;99.90;;;;;;4871530;29;37704;-73
2022/11/24 08:28:44;;;;;;;17.60;2.67;;;7.90;99.90;;;;;;4866827;29;36882;-74
2022/11/24 08:31:17;;;;;;;16.43;3.03;;;7.90;99.90;;;;;;4877184;29;37334;-73
2022/11/24 08:33:43;;;;;;;18.10;2.77;;;7.90;99.90;;;;;;4892339;29;35930;-74
2022/11/24 08:36:14;;;;;;;14.87;2.30;;;8.00;99.90;;;;;;4872400;29;38995;-75
2022/11/24 08:38:44;;;;;;;13.50;2.37;;;8.00;99.90;;;;;;4876135;29;37040;-74
2022/11/24 08:41:15;;;;;;;14.00;2.00;;;8.00;99.90;;;;;;4876557;29;37122;-74
2022/11/24 08:43:42;;;;;;;18.73;2.67;;;8.00;99.90;;;;;;4875930;29;37380;-73
2022/11/24 08:46:12;;;;;;;18.30;2.67;;;8.00;99.90;;;;;;4871429;29;38488;-74
2022/11/24 08:48:38;;;;;;;17.40;2.70;;;8.10;99.90;;;;;;4872424;29;38344;-74
2022/11/24 08:51:25;;;;;;;20.37;2.70;;;8.10;99.90;;;;;;4873539;29;38421;-74
2022/11/24 08:53:59;;;;;;;17.53;2.70;;;8.10;99.90;;;;;;4884969;29;47220;-74
2022/11/24 08:56:31;;;;;;;13.27;2.30;;;8.10;99.90;;;;;;4870504;29;37682;-74
2022/11/24 08:58:58;;;;;;;18.73;2.97;;;8.10;99.90;;;;;;4874581;29;38396;-74
2022/11/24 09:01:25;;;;;;;14.37;2.80;;;8.10;99.90;;;;;;4887563;29;37126;-73
2022/11/24 09:03:52;;;;;;;13.87;2.50;;;8.10;99.90;;;;;;4870215;29;37086;-74
2022/11/24 09:06:22;;;;;;;20.37;3.03;;;8.10;99.90;;;;;;4880846;29;38314;-73
2022/11/24 09:08:48;;;;;;;18.70;2.97;;;8.20;99.90;;;;;;4875061;29;37928;-74
2022/11/24 09:11:15;;;;;;;15.27;2.57;;;8.20;99.90;;;;;;4871453;29;37965;-73
2022/11/24 09:13:42;;;;;;;24.30;3.70;;;8.20;99.90;;;;;;4876520;29;36978;-74
2022/11/24 09:16:16;;;;;;;20.23;3.40;;;8.20;99.90;;;;;;4870194;29;37484;-74
2022/11/24 09:18:43;;;;;;;25.73;4.03;;;8.20;99.90;;;;;;4892416;29;38548;-73
2022/11/24 09:21:15;;;;;;;17.07;2.67;;;8.20;99.90;;;;;;4873187;29;36546;-74
2022/11/24 09:23:41;;;;;;;24.17;3.75;;;8.30;99.90;;;;;;4872759;29;38076;-75
2022/11/24 09:26:13;;;;;;;21.30;2.90;;;8.30;99.90;;;;;;4876126;29;40116;-75
2022/11/24 09:28:39;;;;;;;22.20;3.10;;;8.30;99.90;;;;;;4877192;29;37793;-75
2022/11/24 09:31:08;;;;;;;22.50;4.07;;;8.40;99.90;;;;;;4874442;29;38992;-74
2022/11/24 09:33:36;;;;;;;21.37;3.03;;;8.40;99.90;;;;;;4869276;29;36970;-73
2022/11/24 09:36:02;;;;;;;16.53;3.10;;;8.50;99.90;;;;;;4871870;29;38921;-74
2022/11/24 09:38:29;;;;;;;18.00;3.23;;;8.50;99.90;;;;;;4876209;29;38242;-75
2022/11/24 09:40:55;;;;;;;18.57;2.80;;;8.50;99.90;;;;;;4867143;29;37007;-75
2022/11/24 09:44:13;;;;;;;33.30;3.70;;;8.60;99.90;;;;;;4871882;29;36392;-74
2022/11/24 09:46:58;;;;;;;20.57;3.63;;;8.60;99.90;;;;;;4832968;29;47796;-75
2022/11/24 09:49:34;;;;;;;19.87;3.57;;;8.70;99.90;;;;;;4888958;29;38248;-74
2022/11/24 09:52:07;;;;;;;25.97;3.27;;;8.70;99.90;;;;;;4877808;29;39266;-74
2022/11/24 09:54:37;;;;;;;21.33;3.43;;;8.70;99.90;;;;;;4879469;29;46994;-75
2022/11/24 09:57:04;;;;;;;21.00;4.10;;;8.80;99.90;;;;;;4874400;29;37950;-74
2022/11/24 09:59:31;;;;;;;24.97;4.83;;;8.80;99.90;;;;;;4878212;29;38924;-73
2022/11/24 10:01:59;;;;;;;23.00;4.70;;;8.80;99.90;;;;;;4878130;29;36575;-74
2022/11/24 10:04:33;;;;;;;16.40;4.00;;;8.90;99.90;;;;;;4887620;29;36964;-73
2022/11/24 10:07:28;;;;;;;23.47;4.57;;;8.90;99.90;;;;;;4879351;29;39276;-74
2022/11/24 10:10:22;;;;;;;38.27;6.20;;;8.90;99.90;;;;;;4875499;29;47564;-73
2022/11/24 10:13:36;;;;;;;22.13;5.27;;;9.00;99.90;;;;;;4873599;29;48445;-74
2022/11/24 10:16:21;;;;;;;23.80;4.27;;;9.00;99.90;;;;;;4886862;29;46859;-72
2022/11/24 10:19:20;;;;;;;18.63;3.67;;;9.10;99.90;;;;;;4886503;29;47287;-73
2022/11/24 10:22:11;;;;;;;26.50;5.03;;;9.10;99.90;;;;;;4866900;29;48563;-74
2022/11/24 10:24:58;;;;;;;23.67;4.33;;;9.10;99.90;;;;;;4857835;29;47148;-73
2022/11/24 10:27:54;;;;;;;26.67;4.50;;;9.20;99.90;;;;;;4875621;29;36614;-74
2022/11/24 10:30:22;;;;;;;24.13;3.80;;;9.30;99.90;;;;;;4892794;29;38247;-73
2022/11/24 10:32:57;;;;;;;29.40;4.60;;;9.30;99.90;;;;;;4877013;29;37362;-73
2022/11/24 10:35:45;;;;;;;22.07;4.67;;;9.40;99.90;;;;;;4867534;29;38272;-74
2022/11/24 10:38:15;;;;;;;21.10;4.20;;;9.40;99.90;;;;;;4867042;29;35960;-74
2022/11/24 10:40:55;;;;;;;21.53;4.10;;;9.40;99.90;;;;;;4890218;29;37601;-73
2022/11/24 10:43:21;;;;;;;22.17;4.23;;;9.40;99.90;;;;;;4871535;29;39903;-73
2022/11/24 10:45:48;;;;;;;24.50;4.17;;;9.50;99.90;;;;;;4876885;29;39410;-73
2022/11/24 10:48:42;;;;;;;23.77;4.00;;;9.50;99.90;;;;;;4885382;29;37061;-73
2022/11/24 10:51:54;;;;;;;25.37;4.07;;;9.60;99.90;;;;;;4875484;29;37586;-74
2022/11/24 10:54:24;;;;;;;22.83;4.47;;;9.60;99.90;;;;;;4877208;29;39253;-74
2022/11/24 10:56:52;;;;;;;25.23;3.83;;;9.70;99.90;;;;;;4882992;29;39824;-74
2022/11/24 10:59:24;;;;;;;19.53;3.43;;;9.70;99.90;;;;;;4873484;29;36943;-73
2022/11/24 11:01:51;;;;;;;22.77;3.80;;;9.80;99.90;;;;;;4893371;29;37726;-73
2022/11/24 11:04:20;;;;;;;22.93;3.97;;;9.90;99.90;;;;;;4877495;29;39726;-73
2022/11/24 11:06:46;;;;;;;23.47;4.17;;;9.90;99.90;;;;;;4893351;29;36578;-74
2022/11/24 11:09:13;;;;;;;19.13;3.67;;;9.90;99.90;;;;;;4869588;29;36945;-74
2022/11/24 11:11:40;;;;;;;25.63;4.03;;;10.00;99.90;;;;;;4889677;29;38677;-74
2022/11/24 11:14:11;;;;;;;17.13;4.00;;;10.00;99.90;;;;;;4874063;29;42886;-73
2022/11/24 11:16:50;;;;;;;17.93;3.63;;;10.00;99.90;;;;;;4881079;29;38987;-74
2022/11/24 11:19:32;;;;;;;22.40;3.83;;;10.00;99.90;;;;;;4874444;29;37528;-72
2022/11/24 11:22:05;;;;;;;16.77;3.33;;;10.10;99.90;;;;;;4886116;29;38070;-74
2022/11/24 11:24:32;;;;;;;24.67;3.67;;;10.10;99.90;;;;;;4878987;29;48729;-73
2022/11/24 11:27:03;;;;;;;32.00;5.27;;;10.20;99.90;;;;;;4892655;29;37384;-73
2022/11/24 11:29:30;;;;;;;22.23;4.00;;;10.30;99.90;;;;;;4876379;29;49613;-74
2022/11/24 11:32:03;;;;;;;25.30;4.67;;;10.40;99.90;;;;;;4876738;29;38936;-75
2022/11/24 11:34:36;;;;;;;21.10;4.30;;;10.40;99.90;;;;;;4882095;29;47287;-74
2022/11/24 11:37:03;;;;;;;34.33;5.07;;;10.50;99.90;;;;;;4875508;29;37526;-75
2022/11/24 11:39:33;;;;;;;19.20;3.90;;;10.50;99.90;;;;;;4877675;29;47272;-74
2022/11/24 11:42:48;;;;;;;28.03;5.90;;;10.40;99.90;;;;;;4877061;29;37139;-76
2022/11/24 11:45:19;;;;;;;19.67;4.13;;;10.50;99.90;;;;;;4875232;29;48519;-75
2022/11/24 11:47:57;;;;;;;22.53;5.93;;;10.60;99.90;;;;;;4872940;29;37808;-75
2022/11/24 11:50:33;;;;;;;18.40;4.57;;;10.60;99.90;;;;;;4876602;29;36860;-75
2022/11/24 11:53:26;;;;;;;34.30;5.83;;;10.70;99.90;;;;;;4878726;29;39254;-76
2022/11/24 11:56:53;;;;;;;21.23;4.23;;;10.70;99.90;;;;;;4853367;29;49184;-75
2022/11/24 11:59:48;;;;;;;20.37;4.80;;;10.80;99.90;;;;;;4868418;29;45394;-75
2022/11/24 12:02:58;;;;;;;16.17;3.47;;;10.80;99.90;;;;;;4876834;29;36003;-76
2022/11/24 12:05:48;;;;;;;17.03;4.03;;;10.90;99.90;;;;;;4859435;29;40031;-75
2022/11/24 12:09:02;;;;;;;19.00;3.37;;;10.90;99.90;;;;;;4872776;29;38744;-75
2022/11/24 12:11:34;;;;;;;19.80;4.30;;;10.90;99.90;;;;;;4855883;29;36793;-75
2022/11/24 12:14:35;;;;;;;24.05;5.38;;;10.90;99.90;;;;;;4871578;29;35911;-76
2022/11/24 12:17:20;;;;;;;20.37;3.87;;;11.00;99.90;;;;;;4881602;29;47283;-76
2022/11/24 12:19:53;;;;;;;20.83;5.13;;;10.90;99.90;;;;;;4881513;29;47380;-75
2022/11/24 12:22:43;;;;;;;24.85;4.15;;;11.00;99.90;;;;;;4859668;29;38600;-76
2022/11/24 12:25:28;;;;;;;12.20;3.60;;;11.00;99.90;;;;;;4874878;29;36262;-75
2022/11/24 12:28:00;;;;;;;23.50;5.00;;;10.90;99.90;;;;;;4877548;29;37681;-75
2022/11/24 12:30:36;;;;;;;22.90;4.70;;;10.90;99.90;;;;;;4876344;29;38307;-75
2022/11/24 12:33:21;;;;;;;24.43;4.60;;;10.90;99.90;;;;;;4874538;29;38529;-75
2022/11/24 12:36:20;;;;;;;24.50;4.87;;;11.00;99.90;;;;;;4855000;29;36321;-73
2022/11/24 12:39:03;;;;;;;22.10;5.93;;;11.00;99.90;;;;;;4855463;29;48050;-75
2022/11/24 12:41:47;;;;;;;21.20;4.47;;;10.90;99.90;;;;;;4875718;29;47066;-74
2022/11/24 12:44:32;;;;;;;25.53;5.20;;;11.00;99.90;;;;;;4880257;29;36838;-76
2022/11/24 12:47:22;;;;;;;26.33;4.83;;;11.00;99.90;;;;;;4879343;29;36443;-75
2022/11/24 12:50:12;;;;;;;18.53;4.70;;;11.00;99.90;;;;;;4873555;29;48957;-75
2022/11/24 12:53:02;;;;;;;18.47;5.10;;;11.00;99.90;;;;;;4857664;29;47166;-75
2022/11/24 12:55:32;;;;;;;22.73;4.70;;;11.00;99.90;;;;;;4856807;29;48306;-74
2022/11/24 12:58:11;;;;;;;16.00;4.43;;;11.10;99.90;;;;;;4856289;29;36830;-75
2022/11/24 13:01:07;;;;;;;17.43;4.53;;;11.00;99.90;;;;;;4878970;29;46908;-75
2022/11/24 13:03:45;;;;;;;20.23;4.47;;;11.00;99.90;;;;;;4870574;29;48191;-74
2022/11/24 13:06:22;;;;;;;19.47;4.53;;;11.00;99.90;;;;;;4888780;29;36863;-73
2022/11/24 13:08:48;;;;;;;20.13;4.20;;;10.90;99.90;;;;;;4877049;29;36666;-74
2022/11/24 13:11:20;;;;;;;21.60;4.33;;;10.90;99.90;;;;;;4878344;29;37461;-76
2022/11/24 13:14:00;;;;;;;15.23;4.13;;;10.90;99.90;;;;;;4877406;29;39248;-76